Alford, United Kingdom
Current Conditions -  °F | °C
As of 12:50 PM on Thursday 27 Nov 2014 (Local Time) from EGPD Reporting Station
Moderate Rain Moderate Rain  
Wind Chill: 46°   Ceiling: 400
Heat Index: 48°   Visibility: 2.1mi
Dew Point: 46°   Wind: 6mph
Humidity: 93%   Direction: 130°SE
Pressure: 29.65"   Gusts: NA
Location:  57.23°N, 2.7°W
Report Text: EGPD 271250Z 13005KT 3500 RADZ BKN004 09/08 Q1004 NOSIG
Loading
Personal Weather Stations






























Interactive Weather Map New forecast layout! Learn more

10-Day Weather Forecast

Advertisements
Track Severe Weather on mobile